Time;durP1;ratioP1;P1;durP2;ratioP2;P2;SDS_P1;SDS_P2;PMS_P1;PMS_P2;Temp;Humidity;BMP_temperature;BMP_pressure;BME280_temperature;BME280_humidity;BME280_pressure;Samples;Min_cycle;Max_cycle;Signal;HPM_P1;HPM_P2
2023/10/28 00:00:29;;;;;;;1.23;0.53;;;;;;;10.95;100.00;98683.75;5042182;28;20305;-77
2023/10/28 00:02:55;;;;;;;1.70;0.60;;;;;;;10.91;100.00;98671.81;5035160;28;20187;-78
2023/10/28 00:05:20;;;;;;;1.13;0.53;;;;;;;10.90;100.00;98675.31;5038237;28;20964;-76
2023/10/28 00:07:46;;;;;;;1.23;0.90;;;;;;;10.93;100.00;98677.78;5036575;28;20196;-78
2023/10/28 00:10:11;;;;;;;0.80;0.50;;;;;;;10.90;100.00;98683.06;5042534;28;20230;-78
2023/10/28 00:12:37;;;;;;;1.40;0.80;;;;;;;10.92;100.00;98675.25;5041841;28;20205;-77
2023/10/28 00:15:03;;;;;;;1.53;0.73;;;;;;;10.93;100.00;98684.69;5044012;28;20201;-78
2023/10/28 00:17:29;;;;;;;2.30;0.70;;;;;;;10.97;100.00;98686.28;5038357;28;20182;-77
2023/10/28 00:19:54;;;;;;;1.70;0.80;;;;;;;10.93;100.00;98689.88;5041594;28;20210;-77
2023/10/28 00:22:21;;;;;;;0.73;0.70;;;;;;;10.89;100.00;98693.50;5036608;28;20194;-78
2023/10/28 00:24:47;;;;;;;0.60;0.50;;;;;;;10.92;100.00;98690.78;5041474;28;20892;-77
2023/10/28 00:27:12;;;;;;;1.03;0.80;;;;;;;10.95;100.00;98688.06;5041745;28;20201;-77
2023/10/28 00:29:37;;;;;;;2.10;0.60;;;;;;;10.91;100.00;98683.91;5044637;28;20218;-78
2023/10/28 00:32:04;;;;;;;1.97;0.80;;;;;;;10.87;100.00;98698.69;5041554;28;20219;-76
2023/10/28 00:34:32;;;;;;;1.47;0.70;;;;;;;10.89;100.00;98696.91;5044948;28;20270;-77
2023/10/28 00:36:58;;;;;;;1.83;0.70;;;;;;;10.86;100.00;98707.38;5045856;28;20229;-77
2023/10/28 00:39:23;;;;;;;1.40;0.77;;;;;;;10.80;100.00;98707.59;5045917;28;20233;-78
2023/10/28 00:41:48;;;;;;;1.20;0.80;;;;;;;10.87;100.00;98705.63;5044288;28;20671;-78
2023/10/28 00:44:15;;;;;;;1.20;0.60;;;;;;;10.89;100.00;98721.97;5043653;28;20252;-77
2023/10/28 00:46:41;;;;;;;1.13;0.70;;;;;;;10.90;100.00;98718.44;5046115;28;20188;-78
2023/10/28 00:49:07;;;;;;;1.43;0.80;;;;;;;10.83;100.00;98723.00;5047662;28;20253;-78
2023/10/28 00:51:33;;;;;;;0.90;0.60;;;;;;;10.87;100.00;98723.75;5068816;28;20191;-78
2023/10/28 00:53:59;;;;;;;1.27;0.90;;;;;;;10.81;100.00;98722.22;5049134;28;20183;-79
2023/10/28 00:56:24;;;;;;;0.97;0.80;;;;;;;10.77;100.00;98731.00;5045531;28;20199;-78
2023/10/28 00:58:52;;;;;;;1.43;0.63;;;;;;;10.83;100.00;98726.44;5043712;28;20271;-77
2023/10/28 01:01:18;;;;;;;1.67;0.90;;;;;;;10.81;100.00;98728.25;5040482;28;20314;-78
2023/10/28 01:03:44;;;;;;;2.87;0.83;;;;;;;10.87;100.00;98742.69;5043341;28;20191;-77
2023/10/28 01:06:10;;;;;;;2.17;0.80;;;;;;;10.83;100.00;98747.16;5044919;28;20195;-77
2023/10/28 01:08:36;;;;;;;2.20;1.00;;;;;;;10.77;100.00;98749.94;5041460;28;20206;-77
2023/10/28 01:11:02;;;;;;;1.37;0.90;;;;;;;10.76;100.00;98755.19;5058239;28;20190;-78
2023/10/28 01:13:28;;;;;;;2.47;0.83;;;;;;;10.75;100.00;98743.97;5041735;28;20239;-78
2023/10/28 01:15:53;;;;;;;1.83;0.57;;;;;;;10.67;100.00;98753.75;5042617;28;20825;-77
2023/10/28 01:18:20;;;;;;;1.00;0.70;;;;;;;10.73;100.00;98752.69;5045474;28;20725;-77
2023/10/28 01:20:46;;;;;;;1.87;0.93;;;;;;;10.67;100.00;98752.00;5043594;28;20192;-78
2023/10/28 01:23:11;;;;;;;1.80;0.83;;;;;;;10.70;100.00;98748.47;5043499;28;20658;-78
2023/10/28 01:25:37;;;;;;;1.80;0.87;;;;;;;10.73;100.00;98757.88;5042785;28;20214;-78
2023/10/28 01:28:02;;;;;;;3.63;1.17;;;;;;;10.68;100.00;98756.25;5043173;28;20205;-78
2023/10/28 01:30:27;;;;;;;1.10;0.70;;;;;;;10.67;100.00;98754.56;5044097;28;20214;-77
2023/10/28 01:32:53;;;;;;;2.23;1.03;;;;;;;10.69;100.00;98762.31;5042160;28;20219;-78
2023/10/28 01:35:18;;;;;;;2.57;1.00;;;;;;;10.72;100.00;98754.44;5044823;28;20650;-78
2023/10/28 01:37:43;;;;;;;2.03;0.93;;;;;;;10.71;100.00;98749.31;5045121;28;20218;-77
2023/10/28 01:40:13;;;;;;;1.97;1.10;;;;;;;10.68;100.00;98742.50;5043246;28;20211;-77
2023/10/28 01:42:40;;;;;;;1.20;0.80;;;;;;;10.62;100.00;98745.28;5039927;28;20197;-77
2023/10/28 01:45:06;;;;;;;1.50;0.90;;;;;;;10.56;100.00;98740.34;5057731;28;20183;-77
2023/10/28 01:47:31;;;;;;;1.63;0.90;;;;;;;10.50;100.00;98738.81;5044151;28;20639;-78
2023/10/28 01:49:58;;;;;;;1.13;0.70;;;;;;;10.43;100.00;98739.88;5041209;28;20210;-78
2023/10/28 01:52:24;;;;;;;3.53;1.40;;;;;;;10.33;100.00;98747.94;5043583;28;20273;-78
2023/10/28 01:54:51;;;;;;;1.57;1.10;;;;;;;10.32;100.00;98737.63;5040409;28;20191;-76
2023/10/28 01:57:17;;;;;;;2.40;1.00;;;;;;;10.27;100.00;98730.03;5058184;28;20283;-78
2023/10/28 01:59:44;;;;;;;2.93;1.30;;;;;;;10.34;100.00;98728.06;5044255;28;20324;-77
2023/10/28 02:02:10;;;;;;;6.77;1.97;;;;;;;10.38;100.00;98727.13;5042137;28;20722;-77
2023/10/28 02:04:35;;;;;;;1.93;0.90;;;;;;;10.40;100.00;98727.06;5043198;28;20317;-76
2023/10/28 02:07:01;;;;;;;5.33;1.23;;;;;;;10.43;100.00;98726.97;5043437;28;20229;-77
2023/10/28 02:09:28;;;;;;;1.80;1.10;;;;;;;10.43;100.00;98729.53;5045309;28;20214;-79
2023/10/28 02:11:54;;;;;;;3.20;1.57;;;;;;;10.42;100.00;98731.31;5037721;28;20286;-78
2023/10/28 02:14:25;;;;;;;5.60;1.47;;;;;;;10.42;100.00;98727.84;5042745;28;20273;-77
2023/10/28 02:16:50;;;;;;;3.00;1.33;;;;;;;10.44;100.00;98732.06;5042404;28;20822;-77
2023/10/28 02:19:17;;;;;;;4.83;1.30;;;;;;;10.44;100.00;98721.72;5044098;28;20260;-77
2023/10/28 02:21:44;;;;;;;2.90;0.97;;;;;;;10.46;100.00;98729.44;5040206;28;20186;-77
2023/10/28 02:24:09;;;;;;;2.47;1.37;;;;;;;10.50;100.00;98723.28;5043316;28;20190;-77
2023/10/28 02:26:35;;;;;;;2.20;1.20;;;;;;;10.61;100.00;98720.31;5039366;28;20187;-78
2023/10/28 02:29:00;;;;;;;1.77;0.90;;;;;;;10.62;100.00;98715.09;5039164;28;20298;-77
2023/10/28 02:31:25;;;;;;;2.23;1.07;;;;;;;10.68;100.00;98719.22;5037758;28;20320;-77
2023/10/28 02:33:51;;;;;;;1.70;1.03;;;;;;;10.65;100.00;98724.50;5040814;28;20187;-78
2023/10/28 02:36:16;;;;;;;2.70;1.20;;;;;;;10.70;100.00;98717.44;5043139;28;20197;-78
2023/10/28 02:38:41;;;;;;;5.20;1.50;;;;;;;10.77;100.00;98718.06;5044973;28;20256;-78
2023/10/28 02:41:07;;;;;;;3.03;1.30;;;;;;;10.79;100.00;98718.84;5043876;28;20191;-77
2023/10/28 02:43:36;;;;;;;3.77;1.30;;;;;;;10.77;100.00;98715.47;5043180;28;20248;-78
2023/10/28 02:46:03;;;;;;;3.13;1.30;;;;;;;10.77;100.00;98723.22;5054523;28;20191;-79
2023/10/28 02:48:29;;;;;;;3.33;1.40;;;;;;;10.81;100.00;98715.28;5053076;28;20210;-76
2023/10/28 02:50:54;;;;;;;3.73;1.40;;;;;;;10.75;100.00;98720.69;5044666;28;20269;-78
2023/10/28 02:53:19;;;;;;;4.57;1.50;;;;;;;10.79;100.00;98716.25;5043448;28;20215;-77
2023/10/28 02:55:44;;;;;;;4.07;1.50;;;;;;;10.87;100.00;98716.81;5042088;28;20190;-78
2023/10/28 02:58:10;;;;;;;4.40;1.67;;;;;;;10.84;100.00;98714.34;5041409;28;20277;-77
2023/10/28 03:00:35;;;;;;;3.07;1.60;;;;;;;10.87;100.00;98727.19;5040972;28;21141;-77
2023/10/28 03:03:02;;;;;;;2.70;1.20;;;;;;;10.80;100.00;98725.72;5041024;28;20196;-77
2023/10/28 03:05:29;;;;;;;5.23;1.43;;;;;;;10.83;100.00;98729.03;5043679;28;20276;-77
2023/10/28 03:07:55;;;;;;;3.87;1.20;;;;;;;10.87;100.00;98726.34;5040773;28;20573;-79
2023/10/28 03:10:20;;;;;;;2.77;1.50;;;;;;;10.88;100.00;98723.69;5041231;28;20214;-77
2023/10/28 03:12:46;;;;;;;5.93;1.70;;;;;;;10.92;100.00;98721.81;5038737;28;20634;-77
2023/10/28 03:15:12;;;;;;;4.67;1.60;;;;;;;10.89;100.00;98735.72;5035884;28;20258;-77
2023/10/28 03:17:38;;;;;;;5.90;1.40;;;;;;;10.90;100.00;98733.97;5040503;28;20198;-77
2023/10/28 03:20:05;;;;;;;4.87;1.83;;;;;;;10.93;100.00;98734.72;5043080;28;20207;-77
2023/10/28 03:22:30;;;;;;;4.07;1.50;;;;;;;10.98;100.00;98737.16;5040450;28;21010;-78
2023/10/28 03:24:55;;;;;;;3.87;1.70;;;;;;;10.95;100.00;98730.34;5041394;28;20191;-77
2023/10/28 03:27:21;;;;;;;3.83;1.53;;;;;;;10.92;100.00;98727.00;5042219;28;20193;-76
2023/10/28 03:29:46;;;;;;;2.73;1.40;;;;;;;10.95;100.00;98737.25;5041028;28;20202;-76
2023/10/28 03:32:12;;;;;;;2.93;1.60;;;;;;;10.93;100.00;98732.16;5041109;28;20199;-78
2023/10/28 03:34:37;;;;;;;3.80;1.77;;;;;;;10.96;100.00;98731.19;5041458;28;20187;-78
2023/10/28 03:37:03;;;;;;;4.37;1.27;;;;;;;10.92;100.00;98727.00;5040518;28;20237;-77
2023/10/28 03:39:29;;;;;;;4.37;1.43;;;;;;;10.94;100.00;98732.97;5041344;28;20285;-77
2023/10/28 03:41:54;;;;;;;5.03;1.30;;;;;;;10.96;100.00;98734.63;5041150;28;20652;-79
2023/10/28 03:44:19;;;;;;;2.97;1.43;;;;;;;10.91;100.00;98730.50;5039386;28;20222;-77
2023/10/28 03:46:45;;;;;;;2.23;1.50;;;;;;;10.97;100.00;98730.28;5041689;28;21565;-76
2023/10/28 03:49:11;;;;;;;4.00;1.80;;;;;;;10.93;100.00;98728.69;5042707;28;20210;-77
2023/10/28 03:51:38;;;;;;;4.07;1.43;;;;;;;10.90;100.00;98733.97;5038860;28;20202;-78
2023/10/28 03:54:04;;;;;;;3.77;1.40;;;;;;;10.91;100.00;98735.66;5037785;28;20277;-77
2023/10/28 03:56:30;;;;;;;4.37;1.30;;;;;;;10.90;100.00;98734.84;5038029;28;20192;-77
2023/10/28 03:58:55;;;;;;;6.40;1.50;;;;;;;10.91;100.00;98733.06;5037617;28;20216;-78
2023/10/28 04:01:21;;;;;;;4.60;1.30;;;;;;;10.93;100.00;98723.53;5041790;28;20182;-76
2023/10/28 04:03:47;;;;;;;3.90;1.30;;;;;;;10.95;100.00;98726.91;5034652;28;20209;-77
2023/10/28 04:06:12;;;;;;;3.87;1.50;;;;;;;10.95;100.00;98729.50;5042587;28;20221;-76
2023/10/28 04:08:37;;;;;;;2.50;1.20;;;;;;;10.93;100.00;98731.28;5039302;28;20210;-78
2023/10/28 04:11:04;;;;;;;2.73;1.50;;;;;;;10.93;100.00;98732.16;5042874;28;20206;-78
2023/10/28 04:13:30;;;;;;;1.33;0.90;;;;;;;10.94;100.00;98736.44;5041978;28;20210;-77
2023/10/28 04:15:55;;;;;;;1.90;1.00;;;;;;;10.94;100.00;98733.84;5040754;28;20186;-77
2023/10/28 04:18:21;;;;;;;3.40;1.20;;;;;;;10.98;100.00;98730.22;5041270;28;20196;-78
2023/10/28 04:20:47;;;;;;;4.50;0.97;;;;;;;11.01;100.00;98728.41;5042723;28;20186;-79
2023/10/28 04:23:13;;;;;;;3.63;1.40;;;;;;;11.04;100.00;98725.72;5042520;28;20190;-77
2023/10/28 04:25:39;;;;;;;6.67;1.80;;;;;;;11.01;100.00;98731.88;5044447;28;20186;-77
2023/10/28 04:28:04;;;;;;;2.57;1.20;;;;;;;11.01;100.00;98731.00;5041215;28;20191;-77
2023/10/28 04:30:30;;;;;;;3.30;1.13;;;;;;;11.01;100.00;98731.00;5044561;28;20210;-76
2023/10/28 04:32:55;;;;;;;4.37;1.10;;;;;;;11.00;100.00;98730.19;5041478;28;20891;-77
2023/10/28 04:35:21;;;;;;;3.10;1.10;;;;;;;10.98;100.00;98724.22;5043858;28;20261;-78
2023/10/28 04:37:46;;;;;;;2.53;1.17;;;;;;;10.97;100.00;98727.69;5039771;28;20199;-78
2023/10/28 04:40:12;;;;;;;1.97;1.07;;;;;;;11.00;100.00;98730.19;5048617;28;20426;-78
2023/10/28 04:42:37;;;;;;;2.10;1.10;;;;;;;10.97;100.00;98725.09;5050368;28;20172;-79
2023/10/28 04:45:05;;;;;;;3.63;1.20;;;;;;;11.00;100.00;98721.56;5046856;28;20191;-77
2023/10/28 04:47:31;;;;;;;2.83;1.20;;;;;;;10.97;100.00;98713.00;5042447;28;20627;-77
2023/10/28 04:49:56;;;;;;;1.93;0.90;;;;;;;10.97;100.00;98707.81;5042879;28;20277;-77
2023/10/28 04:52:23;;;;;;;1.67;1.00;;;;;;;10.98;100.00;98719.88;5043126;28;20223;-77
2023/10/28 04:54:48;;;;;;;1.30;0.90;;;;;;;10.98;100.00;98712.09;5039945;28;20713;-76
2023/10/28 04:57:14;;;;;;;2.40;0.80;;;;;;;11.00;100.00;98711.19;5043609;28;20272;-77
2023/10/28 04:59:39;;;;;;;2.30;0.97;;;;;;;11.04;100.00;98715.38;5042925;28;20198;-77
2023/10/28 05:02:05;;;;;;;2.50;0.80;;;;;;;11.02;100.00;98712.00;5041531;28;20205;-77
2023/10/28 05:04:30;;;;;;;2.13;1.00;;;;;;;11.07;100.00;98710.09;5043393;28;20178;-77
2023/10/28 05:06:56;;;;;;;1.00;0.70;;;;;;;11.06;100.00;98709.22;5042110;28;20190;-78
2023/10/28 05:09:21;;;;;;;1.63;0.70;;;;;;;11.09;100.00;98710.88;5037464;28;20230;-77
2023/10/28 05:11:53;;;;;;;3.37;1.00;;;;;;;11.13;100.00;98707.25;5042448;28;20221;-78
2023/10/28 05:14:20;;;;;;;2.47;1.00;;;;;;;11.12;100.00;98709.03;5045835;28;20928;-77
2023/10/28 05:16:46;;;;;;;1.87;0.90;;;;;;;11.17;100.00;98715.78;5045988;28;20288;-76
2023/10/28 05:19:11;;;;;;;2.10;0.80;;;;;;;11.18;100.00;98705.34;5045715;28;20710;-77
2023/10/28 05:21:37;;;;;;;1.40;0.73;;;;;;;11.20;100.00;98718.25;5045081;28;20610;-77
2023/10/28 05:24:03;;;;;;;1.43;0.50;;;;;;;11.20;100.00;98719.09;5044072;28;20190;-78
2023/10/28 05:26:28;;;;;;;1.73;0.70;;;;;;;11.22;100.00;98719.88;5045860;28;21086;-77
2023/10/28 05:28:54;;;;;;;1.77;0.63;;;;;;;11.26;100.00;98720.63;5044340;28;20235;-79
2023/10/28 05:31:20;;;;;;;2.07;0.67;;;;;;;11.26;100.00;98721.47;5045340;28;20316;-79
2023/10/28 05:33:45;;;;;;;1.90;0.70;;;;;;;11.28;100.00;98724.81;5046301;28;20326;-76
2023/10/28 05:36:11;;;;;;;1.43;0.77;;;;;;;11.27;100.00;98727.47;5044413;28;20628;-77
2023/10/28 05:38:36;;;;;;;2.03;1.00;;;;;;;11.31;100.00;98728.22;5038228;28;20210;-77
2023/10/28 05:41:02;;;;;;;1.47;0.73;;;;;;;11.33;100.00;98731.59;5037963;28;20213;-78
2023/10/28 05:43:27;;;;;;;0.87;0.70;;;;;;;11.35;100.00;98727.19;5042944;28;20214;-77
2023/10/28 05:45:52;;;;;;;1.77;0.90;;;;;;;11.35;100.00;98727.19;5039721;28;20256;-77
2023/10/28 05:48:18;;;;;;;1.87;0.70;;;;;;;11.38;100.00;98729.69;5042754;28;20188;-76
2023/10/28 05:50:43;;;;;;;3.03;0.70;;;;;;;11.42;100.00;98736.41;5043453;28;20202;-76
2023/10/28 05:53:08;;;;;;;1.67;1.00;;;;;;;11.40;100.00;98733.88;5043707;28;20769;-76
2023/10/28 05:55:34;;;;;;;2.33;0.80;;;;;;;11.41;100.00;98730.41;5045322;28;20213;-77
2023/10/28 05:57:59;;;;;;;3.17;1.00;;;;;;;11.43;100.00;98735.50;5044707;28;20413;-77
2023/10/28 06:00:25;;;;;;;2.37;0.90;;;;;;;11.44;100.00;98732.88;5043229;28;20847;-77
2023/10/28 06:02:50;;;;;;;0.97;0.70;;;;;;;11.45;100.00;98738.91;5044779;28;20183;-77
2023/10/28 06:05:16;;;;;;;3.30;0.80;;;;;;;11.50;100.00;98742.16;5046009;28;20199;-77
2023/10/28 06:07:47;;;;;;;1.73;0.77;;;;;;;11.50;100.00;98744.75;5045658;28;20273;-77
2023/10/28 06:10:13;;;;;;;1.57;0.80;;;;;;;11.52;100.00;98752.47;5042145;28;20218;-76
2023/10/28 06:12:39;;;;;;;1.50;0.90;;;;;;;11.53;100.00;98748.97;5043229;28;20217;-77
2023/10/28 06:15:04;;;;;;;1.53;0.80;;;;;;;11.53;100.00;98749.84;5042993;28;20191;-76
2023/10/28 06:17:30;;;;;;;1.33;0.80;;;;;;;11.56;100.00;98749.72;5044297;28;20562;-78
2023/10/28 06:19:55;;;;;;;3.07;1.07;;;;;;;11.56;100.00;98756.63;5045288;28;20230;-79
2023/10/28 06:22:21;;;;;;;4.97;1.27;;;;;;;11.54;100.00;98751.53;5045690;28;20318;-76
2023/10/28 06:24:49;;;;;;;1.33;0.80;;;;;;;11.56;100.00;98757.50;5043799;28;20195;-78
2023/10/28 06:27:14;;;;;;;2.93;1.23;;;;;;;11.59;100.00;98759.13;5048531;28;20187;-77
2023/10/28 06:29:39;;;;;;;3.30;0.90;;;;;;;11.62;100.00;98763.31;5047274;28;20223;-77
2023/10/28 06:32:06;;;;;;;2.90;1.30;;;;;;;11.59;100.00;98765.13;5045031;28;20215;-78
2023/10/28 06:34:32;;;;;;;1.53;0.90;;;;;;;11.59;100.00;98766.88;5043671;28;20612;-78
2023/10/28 06:36:58;;;;;;;1.90;1.20;;;;;;;11.63;100.00;98770.19;5055574;28;20321;-78
2023/10/28 06:39:23;;;;;;;2.60;0.93;;;;;;;11.64;100.00;98783.13;5043498;28;20288;-77
2023/10/28 06:41:48;;;;;;;3.10;1.10;;;;;;;11.65;100.00;98789.13;5042440;28;20191;-77
2023/10/28 06:44:15;;;;;;;2.70;1.00;;;;;;;11.69;100.00;98777.75;5040660;28;20190;-77
2023/10/28 06:46:40;;;;;;;2.70;1.10;;;;;;;11.68;100.00;98778.66;5039259;28;20194;-78
2023/10/28 06:49:09;;;;;;;4.77;1.73;;;;;;;11.70;100.00;98782.03;5038678;28;20245;-76
2023/10/28 06:51:34;;;;;;;2.53;1.10;;;;;;;11.72;100.00;98777.66;5040911;28;20282;-77
2023/10/28 06:53:59;;;;;;;2.83;0.90;;;;;;;11.75;100.00;98793.06;5042124;28;20191;-76
2023/10/28 06:56:25;;;;;;;2.13;1.10;;;;;;;11.80;100.00;98782.53;5039677;28;20300;-77
2023/10/28 06:58:51;;;;;;;3.90;1.50;;;;;;;11.82;100.00;98778.09;5041253;28;20301;-79
2023/10/28 07:01:18;;;;;;;4.07;1.30;;;;;;;11.85;100.00;98788.38;5042359;28;20205;-77
2023/10/28 07:03:44;;;;;;;1.67;1.00;;;;;;;11.86;100.00;98783.16;5038266;28;20184;-75
2023/10/28 07:06:14;;;;;;;3.33;1.13;;;;;;;11.86;100.00;98790.06;5068857;28;20620;-77
2023/10/28 07:08:39;;;;;;;2.67;1.00;;;;;;;11.86;100.00;98790.06;5040056;28;20690;-77
2023/10/28 07:11:04;;;;;;;1.80;1.20;;;;;;;11.88;100.00;98799.47;5041176;28;20240;-76
2023/10/28 07:13:30;;;;;;;2.77;1.37;;;;;;;11.88;100.00;98799.47;5040851;28;20298;-76
2023/10/28 07:16:03;;;;;;;2.40;1.30;;;;;;;11.87;100.00;98810.72;5035391;28;20331;-76
2023/10/28 07:18:31;;;;;;;2.43;1.10;;;;;;;11.85;100.00;98814.28;5039026;28;20286;-75
2023/10/28 07:20:57;;;;;;;1.93;0.90;;;;;;;11.83;100.00;98819.53;5038099;28;20190;-76
2023/10/28 07:23:26;;;;;;;3.30;1.07;;;;;;;11.89;100.00;98819.28;5041237;28;20848;-76
2023/10/28 07:25:54;;;;;;;2.40;1.40;;;;;;;11.97;100.00;98821.59;5033184;28;20278;-77
2023/10/28 07:28:20;;;;;;;2.53;1.00;;;;;;;12.08;100.00;98834.19;5040622;28;20186;-76
2023/10/28 07:30:53;;;;;;;2.17;0.87;;;;;;;12.21;100.00;98829.38;5037017;28;20730;-76
2023/10/28 07:33:19;;;;;;;3.80;1.33;;;;;;;12.28;100.00;98828.22;5040847;28;20204;-77
2023/10/28 07:35:47;;;;;;;2.10;1.00;;;;;;;12.33;100.00;98830.63;5040488;28;20244;-76
2023/10/28 07:38:13;;;;;;;2.53;1.37;;;;;;;12.32;100.00;98829.78;5030361;28;20722;-77
2023/10/28 07:40:40;;;;;;;2.37;1.17;;;;;;;12.32;100.00;98839.34;5037183;28;20209;-77
2023/10/28 07:43:05;;;;;;;3.43;1.00;;;;;;;12.33;100.00;98843.59;5039456;28;20188;-78
2023/10/28 07:45:31;;;;;;;2.37;1.00;;;;;;;12.37;100.00;98845.16;5039527;28;20223;-76
2023/10/28 07:47:56;;;;;;;2.27;1.17;;;;;;;12.50;100.00;98850.72;5044959;28;20193;-78
2023/10/28 07:50:22;;;;;;;2.37;1.17;;;;;;;12.63;100.00;98856.25;5038912;28;20260;-76
2023/10/28 07:52:47;;;;;;;3.47;1.30;;;;;;;12.74;100.00;98851.47;5038357;28;20230;-78
2023/10/28 07:55:13;;;;;;;1.97;0.90;;;;;;;12.75;100.00;98850.59;5037979;28;20655;-78
2023/10/28 07:57:38;;;;;;;2.33;0.97;;;;;;;12.85;100.00;98860.56;5038215;28;20228;-77
2023/10/28 08:00:05;;;;;;;2.07;1.13;;;;;;;12.89;100.00;98857.78;5038338;28;20215;-77
2023/10/28 08:02:31;;;;;;;2.47;0.97;;;;;;;12.98;100.00;98861.75;5041648;28;20286;-77
2023/10/28 08:04:57;;;;;;;2.33;1.40;;;;;;;13.05;100.00;98864.94;5041499;28;21143;-78
2023/10/28 08:07:24;;;;;;;2.60;0.87;;;;;;;13.11;100.00;98865.50;5044502;28;20193;-78
2023/10/28 08:09:50;;;;;;;2.60;1.30;;;;;;;13.17;100.00;98866.19;5040131;28;20220;-77
2023/10/28 08:12:15;;;;;;;3.50;1.20;;;;;;;13.25;100.00;98864.94;5043242;28;20835;-78
2023/10/28 08:14:42;;;;;;;2.53;1.00;;;;;;;13.30;100.00;98871.69;5042259;28;20193;-77
2023/10/28 08:17:09;;;;;;;2.10;1.00;;;;;;;13.32;100.00;98870.72;5044109;28;20267;-76
2023/10/28 08:19:34;;;;;;;1.57;0.90;;;;;;;13.41;100.00;98870.34;5037750;28;20216;-76
2023/10/28 08:21:59;;;;;;;2.77;1.20;;;;;;;13.50;100.00;98870.88;5041086;28;20185;-77
2023/10/28 08:24:25;;;;;;;2.50;1.27;;;;;;;13.45;100.00;98863.28;5041700;28;20266;-76
2023/10/28 08:26:50;;;;;;;2.80;1.40;;;;;;;13.39;100.00;98861.72;5039248;28;20604;-78
2023/10/28 08:29:15;;;;;;;3.53;1.57;;;;;;;13.22;100.00;98870.25;5049733;28;21008;-78
2023/10/28 08:31:41;;;;;;;3.93;1.33;;;;;;;13.14;100.00;98872.34;5055785;28;20196;-75
2023/10/28 08:34:06;;;;;;;2.63;1.47;;;;;;;13.17;100.00;98882.59;5044878;28;20273;-77
2023/10/28 08:36:35;;;;;;;5.13;1.50;;;;;;;13.07;100.00;98876.97;5040518;28;20179;-76
2023/10/28 08:39:00;;;;;;;3.90;1.50;;;;;;;13.17;100.00;98879.16;5033538;28;20221;-78
2023/10/28 08:41:26;;;;;;;2.80;1.20;;;;;;;13.25;100.00;98880.53;5040750;28;20184;-78
2023/10/28 08:43:53;;;;;;;2.67;1.07;;;;;;;13.36;100.00;98890.47;5041607;28;20597;-77
2023/10/28 08:46:18;;;;;;;3.80;1.40;;;;;;;13.47;100.00;98890.00;5043793;28;20235;-77
2023/10/28 08:48:43;;;;;;;3.37;1.40;;;;;;;13.56;100.00;98884.44;5038291;28;20328;-76
2023/10/28 08:51:12;;;;;;;5.10;1.10;;;;;;;13.60;100.00;98886.91;5037813;28;20579;-77
2023/10/28 08:53:38;;;;;;;3.27;1.40;;;;;;;13.55;100.00;98890.53;5042668;28;20725;-76
2023/10/28 08:56:04;;;;;;;3.23;1.63;;;;;;;13.45;100.00;98881.47;5047390;28;20188;-76
2023/10/28 08:58:30;;;;;;;5.50;1.97;;;;;;;13.37;100.00;98878.31;5037663;28;20185;-77
2023/10/28 09:00:59;;;;;;;1.53;1.10;;;;;;;13.35;100.00;98885.31;5046620;28;20731;-77
2023/10/28 09:03:25;;;;;;;2.70;1.43;;;;;;;13.38;100.00;98883.47;5042004;28;20186;-77
2023/10/28 09:05:55;;;;;;;2.63;1.40;;;;;;;13.46;100.00;98892.69;5040392;28;20184;-80
2023/10/28 09:08:20;;;;;;;2.87;1.00;;;;;;;13.63;100.00;98889.34;5042894;28;20187;-76
2023/10/28 09:10:46;;;;;;;2.70;1.27;;;;;;;13.75;100.00;98894.03;5038572;28;20201;-76
2023/10/28 09:13:15;;;;;;;2.40;1.00;;;;;;;13.83;100.00;98891.91;5044982;28;20251;-77
2023/10/28 09:15:41;;;;;;;2.77;1.33;;;;;;;13.86;100.00;98886.59;5046235;28;20182;-77
2023/10/28 09:18:06;;;;;;;1.83;1.37;;;;;;;14.04;100.00;98891.88;5044585;28;20684;-78
2023/10/28 09:20:31;;;;;;;2.17;1.10;;;;;;;14.05;100.00;98890.09;5043607;28;21785;-76
2023/10/28 09:22:57;;;;;;;2.50;1.10;;;;;;;14.13;100.00;98888.00;5044205;28;20184;-77
2023/10/28 09:25:22;;;;;;;5.60;1.27;;;;;;;14.24;100.00;98895.28;5042997;28;20717;-76
2023/10/28 09:27:48;;;;;;;3.20;1.20;;;;;;;14.24;100.00;98888.34;5043492;28;20188;-77
2023/10/28 09:30:15;;;;;;;2.07;0.90;;;;;;;14.32;100.00;98893.19;5039516;28;20206;-76
2023/10/28 09:32:41;;;;;;;2.33;1.30;;;;;;;14.44;100.00;98895.19;5040589;28;20709;-76
2023/10/28 09:35:08;;;;;;;2.67;1.37;;;;;;;14.45;100.00;98894.28;5042684;28;20194;-77
2023/10/28 09:37:38;;;;;;;2.30;1.20;;;;;;;14.52;100.00;98907.84;5042943;28;20182;-77
2023/10/28 09:40:08;;;;;;;1.93;1.07;;;;;;;14.68;100.00;98894.13;5040751;28;20267;-76
2023/10/28 09:42:35;;;;;;;2.87;0.97;;;;;;;14.73;100.00;98898.19;5043156;28;20265;-77
2023/10/28 09:45:05;;;;;;;2.67;0.97;;;;;;;14.74;100.00;98902.50;5048869;28;20666;-77
2023/10/28 09:47:49;;;;;;;2.43;1.20;;;;;;;14.85;99.47;98898.50;5046671;28;21048;-76
2023/10/28 09:50:15;;;;;;;3.00;1.20;;;;;;;14.83;98.87;98897.75;5042887;28;20216;-77
2023/10/28 09:52:48;;;;;;;1.63;1.00;;;;;;;14.80;99.31;98909.16;5046816;28;20225;-77
2023/10/28 09:55:15;;;;;;;2.67;1.30;;;;;;;14.90;97.40;98905.19;5040619;28;20586;-77
2023/10/28 09:57:43;;;;;;;2.50;1.10;;;;;;;14.90;97.37;98905.19;5046021;28;20797;-78
2023/10/28 10:00:17;;;;;;;2.07;1.20;;;;;;;15.08;96.32;98895.63;5041050;28;20210;-76
2023/10/28 10:03:07;;;;;;;6.10;1.73;;;;;;;14.98;97.92;98896.16;5044653;28;20198;-77
2023/10/28 10:05:53;;;;;;;3.03;1.50;;;;;;;15.13;98.64;98889.31;5038389;28;20187;-77
2023/10/28 10:08:24;;;;;;;2.23;1.17;;;;;;;15.36;98.06;98894.22;5045293;28;20728;-77
2023/10/28 10:10:55;;;;;;;2.00;1.20;;;;;;;15.20;96.90;98890.72;5046686;28;20186;-77
2023/10/28 10:13:22;;;;;;;4.50;1.27;;;;;;;15.24;97.17;98902.69;5058977;28;20226;-78
2023/10/28 10:16:03;;;;;;;3.60;1.60;;;;;;;15.22;96.87;98901.91;5046145;28;20191;-77
2023/10/28 10:18:39;;;;;;;3.63;1.10;;;;;;;15.42;96.88;98892.25;5042031;28;20210;-77
2023/10/28 10:21:12;;;;;;;4.23;1.63;;;;;;;15.45;95.44;98892.91;5042503;28;20187;-77
2023/10/28 10:23:43;;;;;;;3.33;1.40;;;;;;;15.36;93.94;98894.22;5057614;28;20185;-77
2023/10/28 10:26:23;;;;;;;2.77;1.10;;;;;;;15.40;93.94;98897.53;5057580;28;20198;-78
2023/10/28 10:28:51;;;;;;;3.30;1.00;;;;;;;15.47;94.95;98904.13;5045773;28;20214;-77
2023/10/28 10:31:23;;;;;;;3.97;1.47;;;;;;;15.45;94.87;98907.69;5042757;28;20214;-78
2023/10/28 10:34:03;;;;;;;4.27;1.77;;;;;;;15.19;93.70;98899.44;5045050;28;20218;-77
2023/10/28 10:36:30;;;;;;;3.70;1.80;;;;;;;15.05;94.46;98898.38;5041540;28;20925;-78
2023/10/28 10:39:09;;;;;;;2.43;1.30;;;;;;;15.08;94.88;98902.59;5043891;28;20206;-77
2023/10/28 10:41:35;;;;;;;3.13;1.63;;;;;;;14.96;94.06;98896.25;5042602;28;20979;-78
2023/10/28 10:44:23;;;;;;;4.50;1.40;;;;;;;15.05;95.41;98903.59;5045741;28;20960;-78
2023/10/28 10:46:49;;;;;;;3.97;1.60;;;;;;;15.16;95.65;98894.38;5050978;28;20581;-78
2023/10/28 10:49:15;;;;;;;4.13;1.73;;;;;;;15.05;94.73;98894.94;5043830;28;20590;-78
2023/10/28 10:51:41;;;;;;;4.67;1.57;;;;;;;15.19;94.17;98900.31;5041209;28;20189;-77
2023/10/28 10:54:06;;;;;;;4.93;1.80;;;;;;;15.19;93.18;98894.25;5044446;28;20194;-76
2023/10/28 10:56:31;;;;;;;3.53;1.70;;;;;;;15.39;93.78;98893.22;5047562;28;20183;-77
2023/10/28 10:58:58;;;;;;;3.17;1.73;;;;;;;15.41;94.50;98888.78;5046001;28;20202;-78
2023/10/28 11:01:25;;;;;;;3.17;1.50;;;;;;;15.55;94.41;98894.13;5040702;28;20179;-77
2023/10/28 11:03:51;;;;;;;2.93;1.37;;;;;;;15.64;93.66;98897.19;5039958;28;20186;-78
2023/10/28 11:06:16;;;;;;;3.17;1.40;;;;;;;15.70;93.54;98887.28;5045656;28;20194;-76
2023/10/28 11:08:41;;;;;;;4.10;1.40;;;;;;;15.90;92.88;98893.22;5041258;28;20206;-77
2023/10/28 11:11:07;;;;;;;3.17;1.60;;;;;;;16.04;91.96;98894.22;5046076;28;20191;-77
2023/10/28 11:13:32;;;;;;;4.43;1.70;;;;;;;16.03;91.21;98890.78;5044223;28;20210;-78
2023/10/28 11:15:59;;;;;;;4.00;1.70;;;;;;;16.07;91.18;98891.47;5040241;28;20237;-78
2023/10/28 11:18:24;;;;;;;3.87;1.73;;;;;;;16.10;90.68;98897.38;5046863;28;20182;-77
2023/10/28 11:20:51;;;;;;;5.27;3.00;;;;;;;16.04;91.71;98907.28;5044782;28;20186;-77
2023/10/28 11:23:17;;;;;;;7.33;3.87;;;;;;;15.92;90.40;98914.03;5046753;28;20196;-77